Time;durP1;ratioP1;P1;durP2;ratioP2;P2;SDS_P1;SDS_P2;PMS_P1;PMS_P2;Temp;Humidity;BMP_temperature;BMP_pressure;BME280_temperature;BME280_humidity;BME280_pressure;Samples;Min_cycle;Max_cycle;Signal;HPM_P1;HPM_P2
2021/05/30 00:01:49;;;;;;;20.58;11.50;;;;;;;;;;5005805;28;20018;-82
2021/05/30 00:04:14;;;;;;;19.42;11.43;;;;;;;;;;5004590;28;20045;-82
2021/05/30 00:06:40;;;;;;;21.30;11.77;;;;;;;;;;5011380;28;20478;-82
2021/05/30 00:09:05;;;;;;;16.77;10.18;;;;;;;;;;5001491;28;20022;-82
2021/05/30 00:11:33;;;;;;;17.58;11.35;;;;;;;;;;5012096;28;20097;-82
2021/05/30 00:13:59;;;;;;;21.05;10.93;;;;;;;;;;5010381;28;20025;-82
2021/05/30 00:16:24;;;;;;;22.17;12.45;;;;;;;;;;5006723;28;20033;-81
2021/05/30 00:18:49;;;;;;;18.65;11.93;;;;;;;;;;5014289;28;20026;-82
2021/05/30 00:21:15;;;;;;;22.17;11.88;;;;;;;;;;5008891;28;20030;-81
2021/05/30 00:23:40;;;;;;;22.63;11.95;;;;;;;;;;5000434;28;20029;-82
2021/05/30 00:26:05;;;;;;;18.90;11.18;;;;;;;;;;5006830;28;20465;-82
2021/05/30 00:28:31;;;;;;;19.73;11.65;;;;;;;;;;5014649;28;20018;-82
2021/05/30 00:30:56;;;;;;;22.15;11.88;;;;;;;;;;5012347;28;20505;-82
2021/05/30 00:33:21;;;;;;;18.88;11.68;;;;;;;;;;5017277;28;20021;-82
2021/05/30 00:35:46;;;;;;;18.02;10.60;;;;;;;;;;5000482;28;20058;-82
2021/05/30 00:38:11;;;;;;;18.77;11.82;;;;;;;;;;5008232;28;20037;-82
2021/05/30 00:40:36;;;;;;;23.75;11.77;;;;;;;;;;5014845;28;20059;-82
2021/05/30 00:43:02;;;;;;;20.17;11.52;;;;;;;;;;5015249;28;20030;-82
2021/05/30 00:45:28;;;;;;;17.33;10.65;;;;;;;;;;5011920;28;20022;-82
2021/05/30 00:47:53;;;;;;;21.10;10.23;;;;;;;;;;5018004;28;20101;-82
2021/05/30 00:50:18;;;;;;;20.63;12.57;;;;;;;;;;5017917;28;20029;-82
2021/05/30 00:52:44;;;;;;;17.95;10.38;;;;;;;;;;5019153;28;20022;-82
2021/05/30 00:55:12;;;;;;;20.20;11.65;;;;;;;;;;5011475;28;20022;-82
2021/05/30 00:57:38;;;;;;;18.48;11.80;;;;;;;;;;5013442;28;20034;-82
2021/05/30 01:00:05;;;;;;;22.05;11.88;;;;;;;;;;5010743;28;20147;-82
2021/05/30 01:02:30;;;;;;;22.80;11.30;;;;;;;;;;5020531;28;20021;-82
2021/05/30 01:04:55;;;;;;;18.55;10.00;;;;;;;;;;5025465;28;20028;-82
2021/05/30 01:07:20;;;;;;;14.77;9.10;;;;;;;;;;5021922;28;20501;-82
2021/05/30 01:09:46;;;;;;;22.75;11.57;;;;;;;;;;5022511;28;20009;-82
2021/05/30 01:12:12;;;;;;;25.05;12.85;;;;;;;;;;5023690;28;20104;-82
2021/05/30 01:14:38;;;;;;;19.77;11.82;;;;;;;;;;5013730;28;20025;-82
2021/05/30 01:17:06;;;;;;;22.27;12.00;;;;;;;;;;5018872;28;20480;-81
2021/05/30 01:19:33;;;;;;;21.75;10.88;;;;;;;;;;5020033;28;20037;-82
2021/05/30 01:21:58;;;;;;;17.52;11.60;;;;;;;;;;5015086;28;20030;-82
2021/05/30 01:24:23;;;;;;;19.25;12.07;;;;;;;;;;5017318;28;20078;-81
2021/05/30 01:26:48;;;;;;;19.73;11.40;;;;;;;;;;5009773;28;20030;-81
2021/05/30 01:29:14;;;;;;;23.17;13.32;;;;;;;;;;5015300;28;20029;-82
2021/05/30 01:31:39;;;;;;;22.00;12.13;;;;;;;;;;5012007;28;20446;-82
2021/05/30 01:34:04;;;;;;;23.23;13.07;;;;;;;;;;5009692;28;20110;-82
2021/05/30 01:36:29;;;;;;;22.40;12.68;;;;;;;;;;5010370;28;20155;-82
2021/05/30 01:38:55;;;;;;;22.08;12.35;;;;;;;;;;5014431;28;20050;-82
2021/05/30 01:41:20;;;;;;;23.95;13.20;;;;;;;;;;5014333;28;20416;-82
2021/05/30 01:43:45;;;;;;;24.42;13.50;;;;;;;;;;5017985;28;20037;-82
2021/05/30 01:46:10;;;;;;;18.10;12.45;;;;;;;;;;5010449;28;20022;-82
2021/05/30 01:48:36;;;;;;;21.58;12.57;;;;;;;;;;5015107;28;20339;-81
2021/05/30 01:51:01;;;;;;;20.35;13.00;;;;;;;;;;5022263;28;20415;-81
2021/05/30 01:53:39;;;;;;;23.08;12.68;;;;;;;;;;5027093;28;20120;-81
2021/05/30 01:58:30;;;;;;;21.23;13.32;;;;;;;;;;5027992;28;20081;-82
2021/05/30 02:00:55;;;;;;;28.05;13.55;;;;;;;;;;5014531;28;20388;-82
2021/05/30 02:03:21;;;;;;;21.00;13.23;;;;;;;;;;5024733;28;20096;-81
2021/05/30 02:05:47;;;;;;;22.75;13.32;;;;;;;;;;5013840;28;20041;-82
2021/05/30 02:08:13;;;;;;;23.23;13.45;;;;;;;;;;5021786;28;20440;-81
2021/05/30 02:10:38;;;;;;;23.08;12.88;;;;;;;;;;5021067;28;20044;-81
2021/05/30 02:13:05;;;;;;;23.83;13.52;;;;;;;;;;5008748;28;20022;-81
2021/05/30 02:15:31;;;;;;;26.90;14.88;;;;;;;;;;5008693;28;20026;-82
2021/05/30 02:17:56;;;;;;;25.15;12.90;;;;;;;;;;5012646;28;20465;-81
2021/05/30 02:20:31;;;;;;;23.45;12.98;;;;;;;;;;5019707;28;20770;-82
2021/05/30 02:22:57;;;;;;;23.30;14.32;;;;;;;;;;5010138;28;20179;-81
2021/05/30 02:25:22;;;;;;;22.75;13.10;;;;;;;;;;5014780;28;20101;-81
2021/05/30 02:27:47;;;;;;;26.02;13.48;;;;;;;;;;5016878;28;20020;-82
2021/05/30 02:30:13;;;;;;;24.17;13.02;;;;;;;;;;5008337;28;20116;-81
2021/05/30 02:32:38;;;;;;;26.45;13.95;;;;;;;;;;5016870;28;20017;-82
2021/05/30 02:35:03;;;;;;;26.85;14.57;;;;;;;;;;5016276;28;20086;-82
2021/05/30 02:37:28;;;;;;;26.52;13.48;;;;;;;;;;5015729;28;20426;-82
2021/05/30 02:39:53;;;;;;;21.33;13.45;;;;;;;;;;5012050;28;20420;-82
2021/05/30 02:42:19;;;;;;;28.35;14.32;;;;;;;;;;5014335;28;20046;-82
2021/05/30 02:44:44;;;;;;;23.73;14.65;;;;;;;;;;5009308;28;20037;-82
2021/05/30 02:47:09;;;;;;;24.00;13.40;;;;;;;;;;5009916;28;20100;-82
2021/05/30 02:49:34;;;;;;;25.20;14.27;;;;;;;;;;5014569;28;20024;-82
2021/05/30 02:52:00;;;;;;;26.08;14.13;;;;;;;;;;5010512;28;20083;-82
2021/05/30 02:54:25;;;;;;;27.65;14.77;;;;;;;;;;5023409;28;20049;-82
2021/05/30 02:56:50;;;;;;;23.38;14.15;;;;;;;;;;5016564;28;20029;-82
2021/05/30 02:59:16;;;;;;;23.30;13.90;;;;;;;;;;5016021;28;20022;-82
2021/05/30 03:01:41;;;;;;;22.77;13.55;;;;;;;;;;5020325;28;20490;-82
2021/05/30 03:04:06;;;;;;;23.77;14.05;;;;;;;;;;5018719;28;20025;-82
2021/05/30 03:06:31;;;;;;;25.35;14.65;;;;;;;;;;5018001;28;20029;-83
2021/05/30 03:08:58;;;;;;;29.90;14.80;;;;;;;;;;5018404;28;20414;-82
2021/05/30 03:11:23;;;;;;;24.77;13.95;;;;;;;;;;5008164;28;20033;-82
2021/05/30 03:13:49;;;;;;;22.48;13.23;;;;;;;;;;5017897;28;20022;-82
2021/05/30 03:16:14;;;;;;;22.45;13.48;;;;;;;;;;5016808;28;20758;-82
2021/05/30 03:18:39;;;;;;;23.70;13.35;;;;;;;;;;5017014;28;20109;-82
2021/05/30 03:21:04;;;;;;;23.55;13.35;;;;;;;;;;5017775;28;20071;-82
2021/05/30 03:23:30;;;;;;;23.73;13.68;;;;;;;;;;5025434;28;20017;-82
2021/05/30 03:25:55;;;;;;;22.52;13.65;;;;;;;;;;5018525;28;20018;-82
2021/05/30 03:28:20;;;;;;;25.10;13.88;;;;;;;;;;5024447;28;20445;-82
2021/05/30 03:30:46;;;;;;;21.65;13.70;;;;;;;;;;5016247;28;20045;-82
2021/05/30 03:33:11;;;;;;;22.23;13.13;;;;;;;;;;5011128;28;20022;-82
2021/05/30 03:35:36;;;;;;;23.98;14.10;;;;;;;;;;5015621;28;20017;-82
2021/05/30 03:38:04;;;;;;;29.23;14.45;;;;;;;;;;5016724;28;20503;-82
2021/05/30 03:40:33;;;;;;;24.88;15.07;;;;;;;;;;5022388;28;20104;-82
2021/05/30 03:42:58;;;;;;;26.10;13.95;;;;;;;;;;5008394;28;20098;-82
2021/05/30 03:45:24;;;;;;;23.05;13.27;;;;;;;;;;5015538;28;20026;-82
2021/05/30 03:47:49;;;;;;;23.95;13.20;;;;;;;;;;5009211;28;20018;-82
2021/05/30 03:50:15;;;;;;;22.67;13.77;;;;;;;;;;5023628;28;20029;-83
2021/05/30 03:52:40;;;;;;;24.08;14.30;;;;;;;;;;5012382;28;20029;-83
2021/05/30 03:55:06;;;;;;;27.77;14.07;;;;;;;;;;5018446;28;20467;-83
2021/05/30 03:57:32;;;;;;;22.48;14.38;;;;;;;;;;5012577;28;20018;-82
2021/05/30 04:00:01;;;;;;;26.98;14.35;;;;;;;;;;5019147;28;20022;-83
2021/05/30 04:02:26;;;;;;;23.33;13.48;;;;;;;;;;5026633;28;20465;-83
2021/05/30 04:04:51;;;;;;;24.73;13.63;;;;;;;;;;5010602;28;20018;-83
2021/05/30 04:07:16;;;;;;;21.45;12.10;;;;;;;;;;5026274;28;20071;-83
2021/05/30 04:09:41;;;;;;;24.42;13.57;;;;;;;;;;5011996;28;20358;-83
2021/05/30 04:12:07;;;;;;;21.45;12.88;;;;;;;;;;5019974;28;20049;-82
2021/05/30 04:14:32;;;;;;;24.70;13.68;;;;;;;;;;5043200;28;20336;-83
2021/05/30 04:16:57;;;;;;;23.48;14.30;;;;;;;;;;5019864;28;20113;-83
2021/05/30 04:19:22;;;;;;;23.73;14.35;;;;;;;;;;5017997;28;20058;-82
2021/05/30 04:21:47;;;;;;;23.30;14.55;;;;;;;;;;5012714;28;20030;-83
2021/05/30 04:24:13;;;;;;;22.92;14.13;;;;;;;;;;5026616;28;20057;-83
2021/05/30 04:26:38;;;;;;;28.52;14.95;;;;;;;;;;5011423;28;20014;-83
2021/05/30 04:29:04;;;;;;;21.70;12.77;;;;;;;;;;5017379;28;20064;-83
2021/05/30 04:31:29;;;;;;;23.33;13.70;;;;;;;;;;5011370;28;20053;-83
2021/05/30 04:33:54;;;;;;;26.80;14.73;;;;;;;;;;5017565;28;20435;-82
2021/05/30 04:36:20;;;;;;;27.02;14.95;;;;;;;;;;5040299;28;20029;-83
2021/05/30 04:38:45;;;;;;;27.55;15.07;;;;;;;;;;5015198;28;20025;-83
2021/05/30 04:41:10;;;;;;;25.52;14.95;;;;;;;;;;5023405;28;20472;-82
2021/05/30 04:43:36;;;;;;;23.25;14.70;;;;;;;;;;5016334;28;20026;-83
2021/05/30 04:46:02;;;;;;;25.75;15.57;;;;;;;;;;5018505;28;20484;-83
2021/05/30 04:48:27;;;;;;;26.40;15.52;;;;;;;;;;5011442;28;20022;-83
2021/05/30 04:53:37;;;;;;;22.52;12.50;;;;;;;;;;5025916;28;20048;-84
2021/05/30 04:56:26;;;;;;;25.58;15.65;;;;;;;;;;5010731;28;20029;-83
2021/05/30 04:58:51;;;;;;;24.83;14.93;;;;;;;;;;5015757;28;20079;-83
2021/05/30 05:01:17;;;;;;;24.10;13.65;;;;;;;;;;5013546;28;20343;-83
2021/05/30 05:03:42;;;;;;;28.40;16.30;;;;;;;;;;5011059;28;20022;-83
2021/05/30 05:06:07;;;;;;;23.60;14.80;;;;;;;;;;5016844;28;20022;-83
2021/05/30 05:08:33;;;;;;;23.05;12.30;;;;;;;;;;5016346;28;20040;-83
2021/05/30 05:10:58;;;;;;;30.42;15.65;;;;;;;;;;5010789;28;20026;-83
2021/05/30 05:13:23;;;;;;;26.33;15.48;;;;;;;;;;5013939;28;20079;-83
2021/05/30 05:15:49;;;;;;;25.90;15.98;;;;;;;;;;5010699;28;20045;-83
2021/05/30 05:18:19;;;;;;;24.75;15.25;;;;;;;;;;5017590;28;20087;-82
2021/05/30 05:20:45;;;;;;;29.98;16.23;;;;;;;;;;5020407;28;20100;-83
2021/05/30 05:23:11;;;;;;;30.08;15.90;;;;;;;;;;5027712;28;20128;-83
2021/05/30 05:25:36;;;;;;;24.30;15.18;;;;;;;;;;5019743;28;20471;-83
2021/05/30 05:28:02;;;;;;;25.40;14.90;;;;;;;;;;5029555;28;20097;-83
2021/05/30 05:30:28;;;;;;;27.67;15.88;;;;;;;;;;5021531;28;20108;-82
2021/05/30 05:32:53;;;;;;;28.08;15.63;;;;;;;;;;5020115;28;20061;-83
2021/05/30 05:35:19;;;;;;;26.77;15.43;;;;;;;;;;5025624;28;20017;-83
2021/05/30 05:37:44;;;;;;;30.00;16.25;;;;;;;;;;5011499;28;20113;-82
2021/05/30 05:40:09;;;;;;;22.23;12.80;;;;;;;;;;5015703;28;20018;-83
2021/05/30 05:42:35;;;;;;;35.75;16.65;;;;;;;;;;5010775;28;20559;-82
2021/05/30 05:45:01;;;;;;;25.13;15.05;;;;;;;;;;5017978;28;20102;-83
2021/05/30 05:47:26;;;;;;;21.95;13.52;;;;;;;;;;5008776;28;20010;-83
2021/05/30 05:49:51;;;;;;;26.17;15.00;;;;;;;;;;5018315;28;20029;-83
2021/05/30 05:52:16;;;;;;;18.25;11.20;;;;;;;;;;5016532;28;20018;-83
2021/05/30 05:54:41;;;;;;;27.00;15.90;;;;;;;;;;5016441;28;20018;-83
2021/05/30 05:57:07;;;;;;;23.15;13.57;;;;;;;;;;5013959;28;20026;-83
2021/05/30 05:59:32;;;;;;;24.15;13.93;;;;;;;;;;5021360;28;20544;-83
2021/05/30 06:01:57;;;;;;;29.25;16.30;;;;;;;;;;5018429;28;20021;-83
2021/05/30 06:04:22;;;;;;;26.55;15.07;;;;;;;;;;5014642;28;20025;-82
2021/05/30 06:06:47;;;;;;;28.05;16.27;;;;;;;;;;5021090;28;20021;-83
2021/05/30 06:09:12;;;;;;;26.67;15.25;;;;;;;;;;5016494;28;20033;-83
2021/05/30 06:11:38;;;;;;;27.13;15.98;;;;;;;;;;5010847;28;20122;-83
2021/05/30 06:14:03;;;;;;;26.27;13.90;;;;;;;;;;5017950;28;20089;-83
2021/05/30 06:16:28;;;;;;;25.35;14.80;;;;;;;;;;5020949;28;20070;-82
2021/05/30 06:18:54;;;;;;;25.60;13.98;;;;;;;;;;5010611;28;20021;-83
2021/05/30 06:21:20;;;;;;;26.77;14.55;;;;;;;;;;5022056;28;20017;-83
2021/05/30 06:23:45;;;;;;;30.38;16.45;;;;;;;;;;5020769;28;20383;-82
2021/05/30 06:26:11;;;;;;;23.73;14.50;;;;;;;;;;5012394;28;20010;-82
2021/05/30 06:28:36;;;;;;;29.98;16.60;;;;;;;;;;5020449;28;20022;-83
2021/05/30 06:31:01;;;;;;;23.00;13.70;;;;;;;;;;5017577;28;20026;-83
2021/05/30 06:33:26;;;;;;;28.52;15.07;;;;;;;;;;5019659;28;20030;-83
2021/05/30 06:35:51;;;;;;;30.50;17.10;;;;;;;;;;5010902;28;20074;-83
2021/05/30 06:38:17;;;;;;;25.52;15.73;;;;;;;;;;5016532;28;20030;-83
2021/05/30 06:40:42;;;;;;;25.85;15.45;;;;;;;;;;5008308;28;20028;-82
2021/05/30 06:43:10;;;;;;;33.47;18.20;;;;;;;;;;5033509;28;20052;-83
2021/05/30 06:45:35;;;;;;;32.97;16.20;;;;;;;;;;5023294;28;20014;-83
2021/05/30 06:48:01;;;;;;;28.58;17.20;;;;;;;;;;5010626;28;20029;-83
2021/05/30 06:50:26;;;;;;;29.25;17.63;;;;;;;;;;5011020;28;20129;-83
2021/05/30 06:52:52;;;;;;;30.40;17.70;;;;;;;;;;5061181;28;20022;-83
2021/05/30 06:55:20;;;;;;;34.05;17.80;;;;;;;;;;5024621;28;20078;-82
2021/05/30 06:57:45;;;;;;;33.83;17.17;;;;;;;;;;5010122;28;20437;-82
2021/05/30 07:00:11;;;;;;;40.90;20.67;;;;;;;;;;5016947;28;20049;-83
2021/05/30 07:02:36;;;;;;;35.65;18.83;;;;;;;;;;5021775;28;20044;-83
2021/05/30 07:05:01;;;;;;;32.85;18.77;;;;;;;;;;5018014;28;20025;-82
2021/05/30 07:07:27;;;;;;;32.75;16.98;;;;;;;;;;5015529;28;20684;-83
2021/05/30 07:09:52;;;;;;;33.33;19.02;;;;;;;;;;5015500;28;20070;-83
2021/05/30 07:12:17;;;;;;;26.52;14.75;;;;;;;;;;5020287;28;20026;-83
2021/05/30 07:14:42;;;;;;;32.30;18.27;;;;;;;;;;5038985;28;20024;-82
2021/05/30 07:17:07;;;;;;;34.38;19.25;;;;;;;;;;5019016;28;20037;-83
2021/05/30 07:19:33;;;;;;;39.80;21.17;;;;;;;;;;5025689;28;20089;-82
2021/05/30 07:21:58;;;;;;;33.47;19.63;;;;;;;;;;5011801;28;20437;-82
2021/05/30 07:24:26;;;;;;;31.67;19.83;;;;;;;;;;5013094;28;20057;-83
2021/05/30 07:26:51;;;;;;;37.80;19.92;;;;;;;;;;5022898;28;20141;-82
2021/05/30 07:29:17;;;;;;;38.03;19.83;;;;;;;;;;5042791;28;20502;-82
2021/05/30 07:31:43;;;;;;;34.95;19.05;;;;;;;;;;5020214;28;20031;-82
2021/05/30 07:34:08;;;;;;;33.80;19.65;;;;;;;;;;5012414;28;20030;-82
2021/05/30 07:36:33;;;;;;;32.95;18.08;;;;;;;;;;5024483;28;20030;-82
2021/05/30 07:38:58;;;;;;;30.63;17.38;;;;;;;;;;5037482;28;20030;-82
2021/05/30 07:41:24;;;;;;;32.92;18.27;;;;;;;;;;5053443;28;20082;-83
2021/05/30 07:43:49;;;;;;;34.38;17.55;;;;;;;;;;5035513;28;20064;-82
2021/05/30 07:46:15;;;;;;;26.60;16.52;;;;;;;;;;5029644;28;20056;-82
2021/05/30 07:48:40;;;;;;;27.33;14.15;;;;;;;;;;5056321;28;20025;-82
2021/05/30 07:51:05;;;;;;;27.42;15.02;;;;;;;;;;5039738;28;20026;-82
2021/05/30 07:53:30;;;;;;;32.47;18.05;;;;;;;;;;5037170;28;20032;-82
2021/05/30 07:55:56;;;;;;;33.00;17.15;;;;;;;;;;5054599;28;20025;-82
2021/05/30 07:58:21;;;;;;;29.20;15.88;;;;;;;;;;5020631;28;20026;-82
2021/05/30 08:00:46;;;;;;;22.88;13.48;;;;;;;;;;5062391;28;20114;-82
2021/05/30 08:03:11;;;;;;;26.67;15.15;;;;;;;;;;5010974;28;20036;-83
2021/05/30 08:05:36;;;;;;;29.08;15.25;;;;;;;;;;5029602;28;20024;-83
2021/05/30 08:08:02;;;;;;;23.33;13.77;;;;;;;;;;5030887;28;20062;-82
2021/05/30 08:10:29;;;;;;;28.40;15.80;;;;;;;;;;5015833;28;20014;-82
2021/05/30 08:12:54;;;;;;;22.85;14.05;;;;;;;;;;5027519;28;20045;-82
2021/05/30 08:15:19;;;;;;;20.83;12.25;;;;;;;;;;5036194;28;20022;-83
2021/05/30 08:17:46;;;;;;;19.98;11.98;;;;;;;;;;5011540;28;20029;-83
2021/05/30 08:20:12;;;;;;;23.02;12.88;;;;;;;;;;5039390;28;20018;-82
2021/05/30 08:22:37;;;;;;;20.30;11.75;;;;;;;;;;5015685;28;20078;-82
2021/05/30 08:25:03;;;;;;;20.65;12.55;;;;;;;;;;5022497;28;20123;-82
2021/05/30 08:27:28;;;;;;;21.35;11.95;;;;;;;;;;5018095;28;20017;-82
2021/05/30 08:29:53;;;;;;;24.23;12.68;;;;;;;;;;5024424;28;20021;-82
2021/05/30 08:32:20;;;;;;;24.73;13.50;;;;;;;;;;5031247;28;20073;-82
2021/05/30 08:34:46;;;;;;;21.17;12.57;;;;;;;;;;5040205;28;20047;-82
2021/05/30 08:37:11;;;;;;;23.45;12.77;;;;;;;;;;5043425;28;20018;-82
2021/05/30 08:39:36;;;;;;;23.92;13.68;;;;;;;;;;5017429;28;20075;-82
2021/05/30 08:42:02;;;;;;;23.60;11.57;;;;;;;;;;5011400;28;20064;-82
2021/05/30 08:44:27;;;;;;;21.67;12.02;;;;;;;;;;5017859;28;20112;-82
2021/05/30 08:46:52;;;;;;;20.17;11.90;;;;;;;;;;5022020;28;20020;-82
2021/05/30 08:49:18;;;;;;;19.05;11.30;;;;;;;;;;5037010;28;20716;-82
2021/05/30 08:51:43;;;;;;;21.77;12.77;;;;;;;;;;5028807;28;20100;-82
2021/05/30 08:54:09;;;;;;;18.80;11.93;;;;;;;;;;5040586;28;20024;-83
2021/05/30 08:56:35;;;;;;;23.88;11.55;;;;;;;;;;5040823;28;20022;-83
2021/05/30 08:59:13;;;;;;;21.20;12.05;;;;;;;;;;5025011;28;20559;-82
2021/05/30 09:01:42;;;;;;;17.05;11.07;;;;;;;;;;5009852;28;20014;-83
2021/05/30 09:04:07;;;;;;;27.80;11.93;;;;;;;;;;4998857;28;20064;-83
2021/05/30 09:06:43;;;;;;;21.20;10.45;;;;;;;;;;5016285;28;20774;-82
2021/05/30 09:09:08;;;;;;;19.98;10.45;;;;;;;;;;5050545;28;20026;-83
2021/05/30 09:11:37;;;;;;;19.08;11.40;;;;;;;;;;5014405;28;20540;-82
2021/05/30 09:14:04;;;;;;;18.90;11.57;;;;;;;;;;4999813;28;20473;-83
2021/05/30 09:16:47;;;;;;;20.25;10.95;;;;;;;;;;5027027;28;20030;-81
2021/05/30 09:19:30;;;;;;;21.45;11.30;;;;;;;;;;5028912;28;20127;-81
2021/05/30 09:22:14;;;;;;;19.42;10.43;;;;;;;;;;5039227;28;20035;-83
2021/05/30 09:24:40;;;;;;;18.23;8.77;;;;;;;;;;5052450;28;20492;-82
2021/05/30 09:27:09;;;;;;;14.90;8.20;;;;;;;;;;5048989;28;20016;-82
2021/05/30 09:29:34;;;;;;;24.75;7.95;;;;;;;;;;5045899;28;20071;-82
2021/05/30 09:31:59;;;;;;;15.10;7.90;;;;;;;;;;5043953;28;20457;-82
2021/05/30 09:34:25;;;;;;;16.27;7.68;;;;;;;;;;5045707;28;20469;-82
2021/05/30 09:36:51;;;;;;;16.20;8.72;;;;;;;;;;5055328;28;20385;-82
2021/05/30 09:39:31;;;;;;;14.20;7.03;;;;;;;;;;5034025;28;20107;-83
2021/05/30 09:42:16;;;;;;;13.57;6.80;;;;;;;;;;5025700;28;20021;-82
2021/05/30 09:44:52;;;;;;;14.85;7.80;;;;;;;;;;5064311;28;20022;-82
2021/05/30 09:47:31;;;;;;;15.40;7.78;;;;;;;;;;5053149;28;20055;-82
2021/05/30 09:49:56;;;;;;;10.35;6.78;;;;;;;;;;5034813;28;20022;-82
2021/05/30 09:52:35;;;;;;;12.70;6.30;;;;;;;;;;5057086;28;20026;-82
2021/05/30 09:55:10;;;;;;;11.02;6.90;;;;;;;;;;5011829;28;20029;-81
2021/05/30 09:57:35;;;;;;;13.40;6.68;;;;;;;;;;5026849;28;20018;-82
2021/05/30 10:00:00;;;;;;;9.48;6.25;;;;;;;;;;5008211;28;20032;-82
2021/05/30 10:02:26;;;;;;;10.35;5.47;;;;;;;;;;5033442;28;20033;-83
2021/05/30 10:04:51;;;;;;;10.85;6.05;;;;;;;;;;5009950;28;20026;-82
2021/05/30 10:07:16;;;;;;;12.27;6.07;;;;;;;;;;5017916;28;20018;-82
2021/05/30 10:09:41;;;;;;;10.25;5.18;;;;;;;;;;5025377;28;20519;-82
2021/05/30 10:12:08;;;;;;;11.35;5.07;;;;;;;;;;5017882;28;20098;-82
2021/05/30 10:14:35;;;;;;;12.52;5.90;;;;;;;;;;5003527;28;20018;-82
2021/05/30 10:17:00;;;;;;;8.50;4.50;;;;;;;;;;5002083;28;20037;-82
2021/05/30 10:19:31;;;;;;;6.75;4.68;;;;;;;;;;5024055;28;20029;-82
2021/05/30 10:21:58;;;;;;;8.98;5.47;;;;;;;;;;5022645;28;20049;-82
2021/05/30 10:24:23;;;;;;;7.50;4.20;;;;;;;;;;5029338;28;20037;-82
2021/05/30 10:27:07;;;;;;;8.75;4.82;;;;;;;;;;5005030;28;20018;-82
2021/05/30 10:29:33;;;;;;;11.25;5.60;;;;;;;;;;5024589;28;20025;-82
2021/05/30 10:32:13;;;;;;;8.00;5.05;;;;;;;;;;5008226;28;20473;-82
2021/05/30 10:34:38;;;;;;;9.13;4.82;;;;;;;;;;5019927;28;20097;-82
2021/05/30 10:37:09;;;;;;;6.60;4.22;;;;;;;;;;5044912;28;20053;-82
2021/05/30 10:39:34;;;;;;;8.18;4.18;;;;;;;;;;5009223;28;20025;-82
2021/05/30 10:42:12;;;;;;;8.02;3.63;;;;;;;;;;5008848;28;20041;-82
2021/05/30 10:44:47;;;;;;;6.07;3.70;;;;;;;;;;5058148;28;20018;-82
2021/05/30 10:47:13;;;;;;;11.30;3.72;;;;;;;;;;5025590;27;20054;-82
2021/05/30 10:49:58;;;;;;;9.77;3.95;;;;;;;;;;4998841;28;20054;-82
2021/05/30 10:52:37;;;;;;;8.25;3.92;;;;;;;;;;5020261;28;20440;-84
2021/05/30 10:55:17;;;;;;;6.55;3.45;;;;;;;;;;5009611;28;20362;-84
2021/05/30 10:57:43;;;;;;;8.93;4.05;;;;;;;;;;5019016;28;20030;-85
2021/05/30 11:00:17;;;;;;;8.70;4.30;;;;;;;;;;5045239;28;20029;-85
2021/05/30 11:03:04;;;;;;;7.68;3.65;;;;;;;;;;5019811;28;20017;-84
2021/05/30 11:05:50;;;;;;;7.03;3.95;;;;;;;;;;5023213;28;20017;-84
2021/05/30 11:08:30;;;;;;;7.65;4.38;;;;;;;;;;5023289;28;20021;-85
2021/05/30 11:11:22;;;;;;;6.00;4.00;;;;;;;;;;5009223;28;20025;-84
2021/05/30 11:13:47;;;;;;;5.97;3.70;;;;;;;;;;5004835;28;20066;-84
2021/05/30 11:16:13;;;;;;;5.04;3.16;;;;;;;;;;5030897;28;20143;-85
2021/05/30 11:18:38;;;;;;;6.57;3.88;;;;;;;;;;5024902;27;20022;-85
2021/05/30 11:21:03;;;;;;;6.07;3.95;;;;;;;;;;5016529;28;20143;-84
2021/05/30 11:23:28;;;;;;;5.80;3.70;;;;;;;;;;5016227;28;20026;-85
2021/05/30 11:25:56;;;;;;;9.45;4.78;;;;;;;;;;5005392;28;20015;-85
2021/05/30 11:28:22;;;;;;;12.38;4.18;;;;;;;;;;5022276;28;20018;-84
2021/05/30 11:30:55;;;;;;;7.00;4.07;;;;;;;;;;5016903;28;20025;-85
2021/05/30 11:33:24;;;;;;;8.98;3.90;;;;;;;;;;5061134;28;20021;-85
2021/05/30 11:35:51;;;;;;;8.23;4.05;;;;;;;;;;5025829;28;20020;-84
2021/05/30 11:38:16;;;;;;;5.47;3.45;;;;;;;;;;5013487;28;20038;-84
2021/05/30 11:40:41;;;;;;;6.30;3.10;;;;;;;;;;5044994;28;20023;-82
2021/05/30 11:43:17;;;;;;;5.80;3.15;;;;;;;;;;5017523;28;20044;-82
2021/05/30 11:45:44;;;;;;;6.70;3.63;;;;;;;;;;5013008;28;20017;-82
2021/05/30 11:48:09;;;;;;;5.80;3.03;;;;;;;;;;5020374;28;20390;-82
2021/05/30 11:50:39;;;;;;;5.00;2.90;;;;;;;;;;5014947;28;20018;-85
2021/05/30 11:53:23;;;;;;;7.00;3.08;;;;;;;;;;5014231;28;20048;-85
2021/05/30 11:55:49;;;;;;;4.30;2.40;;;;;;;;;;5023164;28;20445;-87
2021/05/30 11:58:14;;;;;;;7.47;2.85;;;;;;;;;;5007745;28;20042;-85
2021/05/30 12:00:39;;;;;;;7.72;3.30;;;;;;;;;;5024427;28;20461;-85
2021/05/30 12:03:08;;;;;;;4.75;2.80;;;;;;;;;;5038532;28;20022;-85
2021/05/30 12:05:34;;;;;;;3.80;2.55;;;;;;;;;;5056181;27;20026;-85
2021/05/30 12:07:59;;;;;;;7.78;2.55;;;;;;;;;;5005693;28;20027;-85
2021/05/30 12:10:24;;;;;;;5.55;2.88;;;;;;;;;;5022517;28;20033;-85
2021/05/30 12:12:49;;;;;;;4.60;2.45;;;;;;;;;;5027526;28;20067;-85
2021/05/30 12:15:15;;;;;;;4.85;3.00;;;;;;;;;;5017817;28;20445;-85
2021/05/30 12:17:56;;;;;;;9.15;2.85;;;;;;;;;;5000635;28;20027;-85
2021/05/30 12:20:22;;;;;;;5.18;2.65;;;;;;;;;;5019684;28;20018;-85
2021/05/30 12:22:47;;;;;;;3.78;2.70;;;;;;;;;;5051415;28;20025;-86
2021/05/30 12:25:13;;;;;;;3.95;2.45;;;;;;;;;;5018452;28;20771;-86
2021/05/30 12:27:38;;;;;;;3.92;2.40;;;;;;;;;;5013198;28;20017;-86
2021/05/30 12:30:04;;;;;;;6.13;2.42;;;;;;;;;;5024474;28;20019;-85
2021/05/30 12:32:29;;;;;;;4.85;2.47;;;;;;;;;;5038306;28;20394;-85
2021/05/30 12:34:54;;;;;;;4.30;2.42;;;;;;;;;;5038707;28;20029;-85
2021/05/30 12:37:37;;;;;;;6.47;2.20;;;;;;;;;;5011295;28;20018;-86
2021/05/30 12:40:02;;;;;;;5.78;2.20;;;;;;;;;;5041139;28;20121;-85
2021/05/30 12:42:28;;;;;;;4.45;2.30;;;;;;;;;;5005816;28;20052;-85
2021/05/30 12:44:55;;;;;;;5.25;2.30;;;;;;;;;;5040232;28;20048;-85
2021/05/30 12:47:22;;;;;;;3.22;2.15;;;;;;;;;;5011152;28;20046;-85
2021/05/30 12:49:57;;;;;;;3.78;2.05;;;;;;;;;;5010240;28;20021;-85
2021/05/30 12:52:23;;;;;;;4.03;1.90;;;;;;;;;;5021145;28;20030;-85
2021/05/30 12:54:56;;;;;;;3.65;2.08;;;;;;;;;;5020516;28;20359;-86
2021/05/30 12:57:35;;;;;;;5.30;2.40;;;;;;;;;;5048363;28;20388;-85
2021/05/30 13:00:00;;;;;;;4.32;2.33;;;;;;;;;;5016415;28;20427;-86
2021/05/30 13:02:25;;;;;;;4.65;2.15;;;;;;;;;;5022547;28;20018;-85
2021/05/30 13:04:51;;;;;;;2.45;1.90;;;;;;;;;;5010477;28;20495;-86
2021/05/30 13:07:19;;;;;;;2.88;1.83;;;;;;;;;;5009861;28;20014;-85
2021/05/30 13:09:46;;;;;;;3.65;2.00;;;;;;;;;;5011494;28;20453;-82
2021/05/30 13:12:31;;;;;;;11.73;2.08;;;;;;;;;;5010833;28;20036;-81
2021/05/30 13:15:06;;;;;;;6.75;2.00;;;;;;;;;;5017519;28;20023;-81
2021/05/30 13:17:32;;;;;;;3.58;1.88;;;;;;;;;;5018826;28;20025;-82
2021/05/30 13:19:58;;;;;;;4.07;1.95;;;;;;;;;;5043678;28;20493;-82
2021/05/30 13:22:23;;;;;;;6.60;1.73;;;;;;;;;;5046741;28;20084;-85
2021/05/30 13:24:48;;;;;;;5.15;1.90;;;;;;;;;;5061425;28;20025;-85
2021/05/30 13:27:21;;;;;;;3.17;1.92;;;;;;;;;;5037781;28;20144;-85
2021/05/30 13:29:58;;;;;;;3.20;2.03;;;;;;;;;;5045609;28;20040;-85
2021/05/30 13:32:24;;;;;;;4.45;1.60;;;;;;;;;;5040443;28;20017;-85
2021/05/30 13:34:49;;;;;;;2.55;2.13;;;;;;;;;;5008033;28;20022;-84
2021/05/30 13:37:14;;;;;;;4.15;2.35;;;;;;;;;;5033802;28;20115;-85
2021/05/30 13:39:39;;;;;;;7.07;2.30;;;;;;;;;;5059109;28;20125;-84
2021/05/30 13:42:04;;;;;;;3.90;1.85;;;;;;;;;;5027129;28;20037;-83
2021/05/30 13:44:30;;;;;;;4.72;1.83;;;;;;;;;;5047891;28;20034;-84
2021/05/30 13:46:55;;;;;;;4.57;1.83;;;;;;;;;;5042907;28;20535;-84
2021/05/30 13:49:20;;;;;;;3.40;1.65;;;;;;;;;;5079866;28;20106;-85
2021/05/30 13:51:45;;;;;;;3.45;1.70;;;;;;;;;;5030155;28;20386;-85
2021/05/30 13:54:10;;;;;;;4.88;1.60;;;;;;;;;;5093251;28;20023;-86
2021/05/30 13:56:36;;;;;;;2.92;1.83;;;;;;;;;;5092131;28;20147;-85
2021/05/30 13:59:01;;;;;;;3.72;1.90;;;;;;;;;;5050683;28;20448;-85
2021/05/30 14:01:29;;;;;;;3.88;1.92;;;;;;;;;;5009691;28;20026;-85
2021/05/30 14:03:54;;;;;;;4.28;1.58;;;;;;;;;;5009846;28;20032;-85
2021/05/30 14:06:20;;;;;;;4.70;1.80;;;;;;;;;;5008568;28;20017;-85
2021/05/30 14:08:46;;;;;;;6.53;1.75;;;;;;;;;;5010740;28;20018;-85
2021/05/30 14:11:11;;;;;;;3.20;1.63;;;;;;;;;;5009917;28;20022;-85
2021/05/30 14:13:37;;;;;;;3.90;1.73;;;;;;;;;;5009836;28;20022;-85
2021/05/30 14:16:03;;;;;;;4.40;2.05;;;;;;;;;;5016821;28;20026;-85
2021/05/30 14:18:28;;;;;;;2.90;1.65;;;;;;;;;;5019096;28;20071;-85
2021/05/30 14:20:53;;;;;;;3.17;1.65;;;;;;;;;;5025884;28;20057;-85
2021/05/30 14:23:18;;;;;;;2.53;1.73;;;;;;;;;;5015926;28;20047;-85
2021/05/30 14:25:43;;;;;;;2.55;1.73;;;;;;;;;;5009066;28;20101;-85
2021/05/30 14:28:09;;;;;;;3.05;1.65;;;;;;;;;;5015107;28;20026;-86
2021/05/30 14:30:35;;;;;;;4.75;1.85;;;;;;;;;;5010073;28;20017;-86